Hauptseite
METAR-TAF:

METAR-TAF

Flughäfen :

Flughafen Saarbrücken

Saarbrücken, Deutschland

Breite: 49-13N, Länge: 007-07E, Höhe: 322 m

Beobachtung

Neuester Wetterbericht von vor 28 Minuten, um 10:50 UTC
Wind 3 kt aus unterschiedlichen Richtungen
Temperatur 25°C
Luftfeuchtigkeit 36%
Luftdruck 1018 hPa
Sichtweite 10 km oder mehr
keine Wolken unter 1500 m und keine Kumulonimbus oder Gewitterwolken

METAR: EDDR 191050Z VRB03KT CAVOK 25/09 Q1018 NOSIG

Zeit: 13:18 (11:18 UTC)

Prognose

Neuester Wetterbericht von vor 6 Stunden und 18 Minuten, um 05:00 UTC
Gültige Prognose vom 19 um 06 UTC bis 20 um 06 UTC
Wind 6 kt aus Nordost
Sichtweite 10 km oder mehr
keine Wolken unter 1500 m und keine Kumulonimbus oder Gewitterwolken

TAF: EDDR 190500Z 1906/2006 04006KT CAVOK

Wetterbeobachtungen und Prognosen von mehr als 4000 Flughäfen (METAR und TAF Bericht).

Die verfügbaren Stationen werden durch gelbe und rote Markierungen auf der Karte dargestellt.

Führen Sie die Maus auf sie, um den Namen der Station zu sehen.

Darauf klicken, um die Beobachtung von Wetterbeobachtungen und Prognosen zu sehen.

Um die Karte zu ändern : klicken Sie auf den grünen Tasten mit einem schwarzen Kreuz Zum Vergrößern, auf den grünen Button mit einem Gedankenstrich zu verkleinern, oder auf die grünen Pfeile für benachbarte Karten.


METAR-TAF: